createdAt,value
2018-04-08T00:02:43.099Z,12.55
2018-04-08T00:06:06.436Z,12.44
2018-04-08T00:09:29.735Z,12.40
2018-04-08T00:12:53.083Z,12.13
2018-04-08T00:16:16.375Z,12.12
2018-04-08T00:19:39.667Z,12.09
2018-04-08T00:23:03.003Z,12.04
2018-04-08T00:26:26.303Z,12.23
2018-04-08T00:29:49.583Z,12.13
2018-04-08T00:33:12.849Z,11.98
2018-04-08T00:36:36.159Z,11.91
2018-04-08T00:39:59.801Z,11.88
2018-04-08T00:43:23.069Z,12.01
2018-04-08T00:46:46.363Z,12.05
2018-04-08T00:50:09.688Z,12.03
2018-04-08T00:53:33.733Z,12.19
2018-04-08T00:56:57.023Z,12.09
2018-04-08T01:00:20.493Z,11.79
2018-04-08T01:03:43.878Z,11.80
2018-04-08T01:07:07.173Z,11.80
2018-04-08T01:10:30.554Z,11.66
2018-04-08T01:13:53.872Z,11.80
2018-04-08T01:17:17.172Z,12.12
2018-04-08T01:20:40.524Z,11.78
2018-04-08T01:24:03.786Z,12.00
2018-04-08T01:27:27.138Z,11.96
2018-04-08T01:30:51.241Z,11.68
2018-04-08T01:34:14.547Z,11.56
2018-04-08T01:37:37.976Z,11.45
2018-04-08T01:41:01.322Z,11.31
2018-04-08T01:44:24.674Z,11.35
2018-04-08T01:47:47.954Z,11.48
2018-04-08T01:51:11.242Z,11.45
2018-04-08T01:54:34.598Z,11.37
2018-04-08T01:57:57.958Z,11.39
2018-04-08T02:01:21.255Z,11.40
2018-04-08T02:04:44.606Z,11.40
2018-04-08T02:08:07.942Z,11.21
2018-04-08T02:11:31.236Z,11.20
2018-04-08T02:14:54.519Z,11.25
2018-04-08T02:18:17.805Z,11.17
2018-04-08T02:21:41.088Z,11.27
2018-04-08T02:25:04.419Z,11.10
2018-04-08T02:28:28.531Z,11.08
2018-04-08T02:31:51.880Z,10.94
2018-04-08T02:35:15.166Z,11.10
2018-04-08T02:38:38.485Z,11.05
2018-04-08T02:42:01.817Z,10.90
2018-04-08T02:45:25.103Z,10.88
2018-04-08T02:48:48.373Z,10.73
2018-04-08T02:52:11.696Z,10.47
2018-04-08T02:55:35.026Z,10.92
2018-04-08T02:58:58.303Z,10.81
2018-04-08T03:02:22.634Z,10.83
2018-04-08T03:05:46.001Z,10.83
2018-04-08T03:09:10.161Z,10.85
2018-04-08T03:12:34.259Z,10.84
2018-04-08T03:15:57.610Z,10.83
2018-04-08T03:19:21.713Z,10.89
2018-04-08T03:22:45.031Z,10.63
2018-04-08T03:26:08.435Z,10.63
2018-04-08T03:29:31.783Z,10.94
2018-04-08T03:32:56.096Z,10.83
2018-04-08T03:36:19.417Z,10.63
2018-04-08T03:39:43.456Z,10.53
2018-04-08T03:43:06.772Z,10.51
2018-04-08T03:46:30.137Z,10.49
2018-04-08T03:49:54.229Z,10.25
2018-04-08T03:53:18.343Z,10.25
2018-04-08T03:56:41.625Z,10.35
2018-04-08T04:00:04.919Z,10.25
2018-04-08T04:03:28.263Z,10.08
2018-04-08T04:06:51.595Z,10.13
2018-04-08T04:10:15.773Z,10.09
2018-04-08T04:13:39.183Z,10.17
2018-04-08T04:17:03.338Z,10.15
2018-04-08T04:20:45.175Z,9.91
2018-04-08T04:24:27.283Z,9.91
2018-04-08T04:27:51.413Z,10.03
2018-04-08T04:31:14.757Z,10.25
2018-04-08T04:34:38.111Z,9.91
2018-04-08T04:38:01.475Z,9.93
2018-04-08T04:41:24.812Z,9.90
2018-04-08T04:44:48.091Z,9.90
2018-04-08T04:48:11.407Z,9.87
2018-04-08T04:51:34.760Z,9.90
2018-04-08T04:54:58.070Z,9.81
2018-04-08T04:58:22.127Z,9.84
2018-04-08T05:01:45.538Z,9.72
2018-04-08T05:05:10.770Z,9.93
2018-04-08T05:08:34.965Z,9.94
2018-04-08T05:11:58.549Z,9.90
2018-04-08T05:15:22.843Z,10.02
2018-04-08T05:18:46.546Z,10.02
2018-04-08T05:22:10.059Z,9.87
2018-04-08T05:25:33.590Z,10.07
2018-04-08T05:28:57.742Z,10.14
2018-04-08T05:32:22.115Z,10.30
2018-04-08T05:35:46.326Z,10.42
2018-04-08T05:39:09.877Z,10.58
2018-04-08T05:42:33.245Z,10.72
2018-04-08T05:45:56.563Z,10.73
2018-04-08T05:49:20.038Z,10.76
2018-04-08T05:52:43.566Z,10.71
2018-04-08T05:56:07.119Z,10.91
2018-04-08T05:59:30.688Z,10.93
2018-04-08T06:02:54.068Z,10.92
2018-04-08T06:06:18.345Z,11.15
2018-04-08T06:09:41.778Z,11.22
2018-04-08T06:13:05.963Z,11.24
2018-04-08T06:16:30.192Z,11.40
2018-04-08T06:19:54.380Z,11.46
2018-04-08T06:23:17.736Z,11.65
2018-04-08T06:26:41.925Z,11.67
2018-04-08T06:30:05.686Z,11.93
2018-04-08T06:33:29.123Z,11.89
2018-04-08T06:36:52.637Z,12.19
2018-04-08T06:40:16.335Z,12.21
2018-04-08T06:43:39.422Z,12.35
2018-04-08T06:47:02.303Z,12.35
2018-04-08T06:50:25.936Z,12.73
2018-04-08T06:53:48.847Z,12.45
2018-04-08T06:57:11.784Z,13.00
2018-04-08T07:00:35.391Z,12.90
2018-04-08T07:03:58.288Z,12.99
2018-04-08T07:07:21.218Z,13.29
2018-04-08T07:10:44.960Z,13.17
2018-04-08T07:14:07.808Z,13.62
2018-04-08T07:17:30.680Z,14.03
2018-04-08T07:20:53.590Z,13.70
2018-04-08T07:24:16.485Z,14.10
2018-04-08T07:27:40.417Z,14.26
2018-04-08T07:31:03.305Z,14.27
2018-04-08T07:34:26.330Z,14.49
2018-04-08T07:37:49.943Z,14.80
2018-04-08T07:41:12.815Z,14.95
2018-04-08T07:44:36.438Z,14.96
2018-04-08T07:47:59.282Z,15.02
2018-04-08T07:51:22.203Z,15.23
2018-04-08T07:54:45.243Z,15.55
2018-04-08T07:58:08.118Z,15.63
2018-04-08T08:01:31.068Z,15.84
2018-04-08T08:04:54.687Z,16.16
2018-04-08T08:08:17.552Z,16.33
2018-04-08T08:11:41.185Z,16.53
2018-04-08T08:15:04.083Z,16.73
2018-04-08T08:18:26.955Z,16.74
2018-04-08T08:21:49.888Z,17.00
2018-04-08T08:25:13.509Z,17.11
2018-04-08T08:28:36.399Z,17.21
2018-04-08T08:32:00.156Z,17.45
2018-04-08T08:35:23.065Z,17.50
2018-04-08T08:38:45.965Z,17.58
2018-04-08T08:42:09.610Z,17.81
2018-04-08T08:45:33.238Z,17.76
2018-04-08T08:48:56.139Z,18.19
2018-04-08T08:52:19.010Z,18.32
2018-04-08T08:55:41.903Z,18.41
2018-04-08T08:59:04.754Z,18.52
2018-04-08T09:02:27.738Z,18.57
2018-04-08T09:05:50.665Z,19.01
2018-04-08T09:09:13.510Z,18.97
2018-04-08T09:12:36.362Z,19.04
2018-04-08T09:15:59.324Z,19.31
2018-04-08T09:19:22.199Z,19.53
2018-04-08T09:26:41.011Z,19.74
2018-04-08T09:30:03.932Z,19.69
2018-04-08T09:33:27.587Z,19.70
2018-04-08T09:36:51.484Z,19.94
2018-04-08T09:40:14.359Z,20.26
2018-04-08T09:43:37.294Z,20.24
2018-04-08T09:47:00.907Z,20.25
2018-04-08T09:50:23.845Z,20.75
2018-04-08T09:53:46.806Z,20.76
2018-04-08T09:57:09.729Z,20.85
2018-04-08T10:04:35.351Z,21.10
2018-04-08T10:07:58.233Z,21.16
2018-04-08T10:11:21.878Z,21.33
2018-04-08T10:14:45.606Z,21.35
2018-04-08T10:18:09.518Z,21.63
2018-04-08T10:21:32.440Z,21.80
2018-04-08T10:24:56.163Z,22.03
2018-04-08T10:28:19.075Z,21.91
2018-04-08T10:31:41.931Z,22.03
2018-04-08T10:35:04.774Z,22.13
2018-04-08T10:38:27.611Z,22.55
2018-04-08T10:41:50.486Z,22.34
2018-04-08T10:45:13.378Z,22.47
2018-04-08T10:48:36.268Z,23.03
2018-04-08T10:51:59.886Z,23.30
2018-04-08T10:55:22.735Z,22.77
2018-04-08T10:58:45.599Z,23.19
2018-04-08T11:02:09.243Z,23.36
2018-04-08T11:05:32.153Z,23.57
2018-04-08T11:08:55.069Z,23.74
2018-04-08T11:12:18.055Z,23.78
2018-04-08T11:15:41.173Z,23.86
2018-04-08T11:19:04.185Z,23.80
2018-04-08T11:22:27.047Z,24.27
2018-04-08T11:25:49.907Z,24.32
2018-04-08T11:32:48.545Z,24.50
2018-04-08T11:36:11.464Z,24.54
2018-04-08T11:39:34.385Z,24.64
2018-04-08T11:42:57.290Z,25.06
2018-04-08T11:46:20.269Z,24.86
2018-04-08T11:49:43.135Z,24.75
2018-04-08T11:53:05.983Z,24.94
2018-04-08T11:56:28.825Z,25.16
2018-04-08T11:59:51.673Z,24.84
2018-04-08T12:03:14.546Z,25.03
2018-04-08T12:06:38.380Z,24.90
2018-04-08T12:10:01.257Z,24.91
2018-04-08T12:13:24.154Z,24.77
2018-04-08T12:16:47.077Z,25.19
2018-04-08T12:20:10.063Z,25.09
2018-04-08T12:23:32.920Z,25.41
2018-04-08T12:26:55.825Z,25.59
2018-04-08T12:30:18.695Z,25.83
2018-04-08T12:33:41.546Z,25.20
2018-04-08T12:37:04.394Z,25.63
2018-04-08T12:40:27.320Z,25.75
2018-04-08T12:43:50.156Z,25.94
2018-04-08T12:47:12.993Z,25.85
2018-04-08T12:50:35.845Z,25.97
2018-04-08T12:53:58.731Z,25.40
2018-04-08T12:57:21.561Z,25.83
2018-04-08T13:00:44.457Z,26.22
2018-04-08T13:04:07.312Z,26.03
2018-04-08T13:07:30.168Z,25.76
2018-04-08T13:10:53.012Z,26.17
2018-04-08T13:14:15.869Z,25.90
2018-04-08T13:17:38.844Z,26.24
2018-04-08T13:21:01.705Z,26.27
2018-04-08T13:24:24.545Z,26.05
2018-04-08T13:27:47.377Z,25.94
2018-04-08T13:31:10.263Z,26.14
2018-04-08T13:34:33.913Z,26.15
2018-04-08T13:37:56.827Z,25.73
2018-04-08T13:41:19.727Z,25.64
2018-04-08T13:44:42.678Z,26.01
2018-04-08T13:48:06.308Z,26.05
2018-04-08T13:51:29.285Z,26.10
2018-04-08T13:54:52.957Z,25.51
2018-04-08T13:58:15.846Z,25.40
2018-04-08T14:01:38.833Z,25.33
2018-04-08T14:05:02.787Z,25.36
2018-04-08T14:08:25.717Z,26.16
2018-04-08T14:11:49.673Z,26.17
2018-04-08T15:38:04.988Z,24.05
2018-04-08T15:41:28.916Z,23.67
2018-04-08T15:44:52.385Z,23.69
2018-04-08T15:48:16.027Z,23.74
2018-04-08T15:51:39.648Z,23.90
2018-04-08T15:55:02.561Z,23.88
2018-04-08T15:58:25.493Z,24.22
2018-04-08T16:01:48.387Z,24.49
2018-04-08T16:05:12.002Z,24.54
2018-04-08T16:08:35.635Z,24.74
2018-04-08T16:11:58.549Z,24.85
2018-04-08T16:15:21.487Z,24.42
2018-04-08T16:18:45.139Z,24.01
2018-04-08T16:22:08.763Z,24.06
2018-04-08T16:25:31.624Z,24.04
2018-04-08T16:28:54.609Z,23.83
2018-04-08T16:32:17.478Z,23.60
2018-04-08T16:35:41.109Z,23.96
2018-04-08T16:39:04.024Z,23.66
2018-04-08T16:42:26.971Z,23.32
2018-04-08T16:45:50.604Z,23.15
2018-04-08T16:49:14.253Z,22.99
2018-04-08T16:52:37.894Z,22.95
2018-04-08T16:56:00.866Z,22.74
2018-04-08T16:59:23.792Z,22.55
2018-04-08T17:02:46.652Z,22.27
2018-04-08T17:06:09.697Z,22.12
2018-04-08T17:09:32.590Z,21.98
2018-04-08T17:12:56.234Z,21.89
2018-04-08T17:16:19.880Z,21.39
2018-04-08T17:19:43.541Z,21.43
2018-04-08T17:23:06.419Z,21.37
2018-04-08T17:26:29.302Z,21.36
2018-04-08T17:29:52.922Z,21.18
2018-04-08T17:33:15.881Z,21.15
2018-04-08T17:36:38.786Z,20.97
2018-04-08T17:40:02.511Z,20.84
2018-04-08T17:43:26.140Z,20.64
2018-04-08T17:46:49.171Z,20.67
2018-04-08T17:50:12.201Z,20.51
2018-04-08T17:53:35.172Z,20.38
2018-04-08T17:56:58.050Z,20.35
2018-04-08T18:00:20.985Z,20.25
2018-04-08T18:03:44.642Z,20.13
2018-04-08T18:07:08.473Z,20.09
2018-04-08T18:10:31.337Z,20.05
2018-04-08T18:13:55.025Z,19.88
2018-04-08T18:17:17.933Z,19.87
2018-04-08T18:20:41.571Z,19.83
2018-04-08T18:24:04.471Z,19.67
2018-04-08T18:27:28.096Z,19.58
2018-04-08T18:30:50.967Z,19.46
2018-04-08T18:34:14.601Z,19.42
2018-04-08T18:37:37.533Z,19.32
2018-04-08T18:41:01.293Z,19.27
2018-04-08T18:44:24.190Z,19.23
2018-04-08T18:47:47.084Z,19.18
2018-04-08T18:51:10.033Z,18.97
2018-04-08T18:54:33.691Z,18.96
2018-04-08T18:57:56.968Z,18.80
2018-04-08T19:01:19.965Z,18.66
2018-04-08T19:04:43.007Z,18.67
2018-04-08T19:08:06.799Z,18.53
2018-04-08T19:11:30.520Z,18.53
2018-04-08T19:14:59.820Z,18.35
2018-04-08T19:18:22.895Z,18.29
2018-04-08T19:21:47.019Z,18.19
2018-04-08T19:25:09.924Z,18.11
2018-04-08T19:28:33.378Z,18.08
2018-04-08T19:31:56.995Z,17.95
2018-04-08T19:35:22.335Z,17.86
2018-04-08T19:38:45.347Z,17.87
2018-04-08T19:42:08.243Z,17.58
2018-04-08T19:45:31.085Z,17.52
2018-04-08T19:48:53.937Z,17.51
2018-04-08T19:52:19.862Z,17.30
2018-04-08T19:55:42.853Z,17.39
2018-04-08T19:59:05.743Z,17.41
2018-04-08T20:02:29.431Z,17.14
2018-04-08T20:05:52.330Z,16.91
2018-04-08T20:09:15.211Z,16.93
2018-04-08T20:12:38.098Z,16.98
2018-04-08T20:16:00.991Z,16.80
2018-04-08T20:19:24.639Z,16.73
2018-04-08T20:22:48.398Z,16.53
2018-04-08T20:26:11.329Z,16.68
2018-04-08T20:29:34.186Z,16.66
2018-04-08T20:32:57.053Z,16.63
2018-04-08T20:36:19.980Z,16.59
2018-04-08T20:39:43.592Z,16.54
2018-04-08T20:43:06.452Z,16.34
2018-04-08T20:46:29.305Z,16.30
2018-04-08T20:49:52.230Z,16.10
2018-04-08T20:53:15.865Z,16.09
2018-04-08T20:56:38.779Z,16.06
2018-04-08T21:00:01.835Z,16.10
2018-04-08T21:03:24.751Z,16.01
2018-04-08T21:06:47.630Z,15.86
2018-04-08T21:10:10.543Z,15.89
2018-04-08T21:13:33.590Z,15.80
2018-04-08T21:16:57.468Z,15.85
2018-04-08T21:20:20.371Z,15.78
2018-04-08T21:23:43.261Z,15.78
2018-04-08T21:27:06.156Z,15.64
2018-04-08T21:30:29.015Z,15.66
2018-04-08T21:33:51.912Z,15.62
2018-04-08T21:37:14.799Z,15.71
2018-04-08T21:40:38.485Z,15.64
2018-04-08T21:44:01.353Z,15.59
2018-04-08T21:47:24.189Z,15.65
2018-04-08T21:50:47.037Z,15.63
2018-04-08T21:54:10.148Z,15.40
2018-04-08T21:57:33.010Z,15.44
2018-04-08T22:00:55.860Z,15.47
2018-04-08T22:04:18.721Z,15.22
2018-04-08T22:07:41.561Z,15.21
2018-04-08T22:11:04.417Z,15.43
2018-04-08T22:14:27.259Z,15.43
2018-04-08T22:17:50.105Z,15.35
2018-04-08T22:21:13.481Z,15.28
2018-04-08T22:24:36.819Z,14.96
2018-04-08T22:28:00.172Z,14.85
2018-04-08T22:31:23.525Z,14.65
2018-04-08T22:34:47.618Z,14.52
2018-04-08T22:38:10.903Z,14.85
2018-04-08T22:41:34.201Z,14.52
2018-04-08T22:44:57.535Z,14.49
2018-04-08T22:48:21.625Z,14.68
2018-04-08T22:51:44.904Z,14.58
2018-04-08T22:55:08.208Z,14.67
2018-04-08T22:58:31.538Z,14.58
2018-04-08T23:01:55.619Z,14.68
2018-04-08T23:05:18.906Z,14.54
2018-04-08T23:08:42.990Z,14.68
2018-04-08T23:12:07.088Z,14.44
2018-04-08T23:15:30.360Z,14.32
2018-04-08T23:18:53.689Z,14.17
2018-04-08T23:22:17.739Z,14.19
2018-04-08T23:25:41.087Z,14.10
2018-04-08T23:29:04.375Z,14.20
2018-04-08T23:32:27.646Z,14.31
2018-04-08T23:35:50.931Z,14.45
2018-04-08T23:39:15.024Z,14.42
2018-04-08T23:42:38.322Z,14.37
2018-04-08T23:46:01.659Z,14.07
2018-04-08T23:49:25.770Z,14.38
2018-04-08T23:52:49.117Z,14.08
2018-04-08T23:56:12.455Z,14.29
2018-04-08T23:59:35.770Z,14.51
